createdAt,value
2019-03-18T00:00:48.816Z,99289.12
2019-03-18T00:03:19.403Z,99282.48
2019-03-18T00:05:50.026Z,99298.36
2019-03-18T00:08:20.324Z,99312.34
2019-03-18T00:10:50.730Z,99319.86
2019-03-18T00:13:20.980Z,99320.89
2019-03-18T00:15:51.209Z,99320.05
2019-03-18T00:18:21.867Z,99329.22
2019-03-18T00:20:53.350Z,99336.52
2019-03-18T00:23:23.579Z,99343.88
2019-03-18T00:25:53.818Z,99348.36
2019-03-18T00:28:24.030Z,99346.92
2019-03-18T00:30:54.250Z,99337.70
2019-03-18T00:33:24.786Z,99303.33
2019-03-18T00:35:55.031Z,99303.62
2019-03-18T00:38:25.599Z,99320.95
2019-03-18T00:40:55.941Z,99325.37
2019-03-18T00:43:27.729Z,99328.65
2019-03-18T00:45:57.964Z,99338.61
2019-03-18T00:48:28.187Z,99342.52
2019-03-18T00:50:58.427Z,99353.72
2019-03-18T00:53:28.646Z,99344.02
2019-03-18T00:55:58.865Z,99343.28
2019-03-18T00:58:29.076Z,99363.17
2019-03-18T01:00:59.311Z,99356.27
2019-03-18T01:03:29.513Z,99347.49
2019-03-18T01:06:00.093Z,99358.16
2019-03-18T01:08:30.371Z,99348.08
2019-03-18T01:11:00.614Z,99373.42
2019-03-18T01:13:30.831Z,99370.23
2019-03-18T01:16:01.043Z,99357.39
2019-03-18T01:18:31.317Z,99356.50
2019-03-18T01:21:01.518Z,99358.43
2019-03-18T01:23:31.753Z,99380.31
2019-03-18T01:26:01.984Z,99391.71
2019-03-18T01:28:33.763Z,99396.66
2019-03-18T01:31:04.381Z,99392.13
2019-03-18T01:33:34.672Z,99384.14
2019-03-18T01:36:04.898Z,99382.99
2019-03-18T01:38:35.156Z,99382.70
2019-03-18T01:41:05.787Z,99387.89
2019-03-18T01:43:37.600Z,99398.89
2019-03-18T01:46:07.807Z,99411.00
2019-03-18T01:48:38.386Z,99412.30
2019-03-18T01:51:10.217Z,99410.84
2019-03-18T01:53:42.384Z,99413.00
2019-03-18T01:56:13.140Z,99402.70
2019-03-18T01:58:43.776Z,99408.34
2019-03-18T02:01:14.420Z,99408.59
2019-03-18T02:03:45.813Z,99400.05
2019-03-18T02:06:16.391Z,99396.19
2019-03-18T02:08:47.054Z,99400.05
2019-03-18T02:11:17.736Z,99401.30
2019-03-18T02:13:49.709Z,99392.59
2019-03-18T02:16:20.184Z,99390.05
2019-03-18T02:18:50.831Z,99388.80
2019-03-18T02:21:21.097Z,99406.89
2019-03-18T02:23:51.332Z,99425.59
2019-03-18T02:26:21.582Z,99459.25
2019-03-18T02:28:51.794Z,99508.61
2019-03-18T02:31:22.016Z,99530.63
2019-03-18T02:33:52.424Z,99518.92
2019-03-18T02:36:22.879Z,99502.44
2019-03-18T02:38:53.117Z,99493.52
2019-03-18T02:41:23.332Z,99496.22
2019-03-18T02:43:53.549Z,99507.62
2019-03-18T02:46:23.825Z,99519.17
2019-03-18T02:48:54.041Z,99518.73
2019-03-18T02:51:24.259Z,99522.32
2019-03-18T02:53:54.485Z,99523.67
2019-03-18T02:56:24.690Z,99530.77
2019-03-18T02:58:54.891Z,99531.26
2019-03-18T03:01:25.503Z,99548.42
2019-03-18T03:03:55.855Z,99542.93
2019-03-18T03:06:26.099Z,99553.81
2019-03-18T03:08:56.292Z,99546.42
2019-03-18T03:11:26.530Z,99533.56
2019-03-18T03:13:56.824Z,99545.78
2019-03-18T03:16:27.761Z,99559.93
2019-03-18T03:18:58.258Z,99568.74
2019-03-18T03:21:28.511Z,99566.52
2019-03-18T03:23:59.092Z,99576.98
2019-03-18T03:26:29.371Z,99596.98
2019-03-18T03:28:59.995Z,99604.45
2019-03-18T03:31:30.697Z,99615.78
2019-03-18T03:34:03.404Z,99618.83
2019-03-18T03:36:33.940Z,99627.14
2019-03-18T03:39:06.289Z,99624.58
2019-03-18T03:41:36.916Z,99622.47
2019-03-18T03:44:07.648Z,99623.73
2019-03-18T03:46:43.700Z,99628.89
2019-03-18T03:49:10.244Z,99618.98
2019-03-18T03:51:40.459Z,99629.78
2019-03-18T03:54:11.031Z,99638.46
2019-03-18T03:56:41.453Z,99639.35
2019-03-18T03:59:11.670Z,99655.02
2019-03-18T04:01:41.893Z,99648.16
2019-03-18T04:04:12.524Z,99646.01
2019-03-18T04:06:42.849Z,99651.23
2019-03-18T04:09:14.706Z,99655.06
2019-03-18T04:11:44.937Z,99668.12
2019-03-18T04:14:15.209Z,99675.91
2019-03-18T04:16:55.900Z,99681.58
2019-03-18T04:19:17.489Z,99685.48
2019-03-18T04:21:50.617Z,99687.19
2019-03-18T04:24:20.002Z,99687.26
2019-03-18T04:26:50.704Z,99695.86
2019-03-18T04:29:22.539Z,99702.36
2019-03-18T04:31:52.726Z,99701.06
2019-03-18T04:34:23.015Z,99705.36
2019-03-18T04:36:53.167Z,99698.05
2019-03-18T04:39:23.404Z,99686.44
2019-03-18T04:41:53.629Z,99683.36
2019-03-18T04:44:23.850Z,99682.06
2019-03-18T04:46:54.169Z,99681.22
2019-03-18T04:49:24.369Z,99688.55
2019-03-18T04:51:54.941Z,99693.27
2019-03-18T04:54:25.230Z,99688.92
2019-03-18T04:56:55.458Z,99689.85
2019-03-18T04:59:26.080Z,99691.97
2019-03-18T05:01:56.352Z,99693.67
2019-03-18T05:04:26.959Z,99694.86
2019-03-18T05:06:57.296Z,99698.42
2019-03-18T05:09:27.909Z,99706.14
2019-03-18T05:11:58.571Z,99706.99
2019-03-18T05:14:29.829Z,99713.48
2019-03-18T05:17:00.412Z,99717.83
2019-03-18T05:19:30.712Z,99722.12
2019-03-18T05:22:00.950Z,99716.52
2019-03-18T05:24:31.900Z,99720.87
2019-03-18T05:27:02.738Z,99716.08
2019-03-18T05:29:35.444Z,99720.79
2019-03-18T05:32:05.645Z,99720.34
2019-03-18T05:34:35.872Z,99720.64
2019-03-18T05:37:07.377Z,99724.02
2019-03-18T05:39:37.975Z,99723.45
2019-03-18T05:42:08.602Z,99736.73
2019-03-18T05:44:39.252Z,99745.31
2019-03-18T05:47:09.531Z,99746.42
2019-03-18T05:49:39.766Z,99748.98
2019-03-18T05:52:09.991Z,99753.09
2019-03-18T05:54:40.212Z,99739.53
2019-03-18T05:57:10.483Z,99739.30
2019-03-18T05:59:40.701Z,99745.84
2019-03-18T06:02:12.970Z,99752.95
2019-03-18T06:04:43.211Z,99767.53
2019-03-18T06:07:13.811Z,99765.17
2019-03-18T06:09:44.160Z,99753.96
2019-03-18T06:12:15.170Z,99767.86
2019-03-18T06:14:45.797Z,99780.45
2019-03-18T06:17:16.141Z,99783.59
2019-03-18T06:19:48.298Z,99792.65
2019-03-18T06:22:18.947Z,99806.14
2019-03-18T06:24:49.576Z,99806.95
2019-03-18T06:27:20.227Z,99808.33
2019-03-18T06:29:50.531Z,99803.94
2019-03-18T06:32:22.847Z,99822.64
2019-03-18T06:34:54.029Z,99820.15
2019-03-18T06:37:24.312Z,99827.13
2019-03-18T06:39:54.880Z,99835.45
2019-03-18T06:42:25.570Z,99839.99
2019-03-18T06:44:55.900Z,99829.48
2019-03-18T06:47:26.448Z,99833.97
2019-03-18T06:49:56.772Z,99826.28
2019-03-18T06:52:27.349Z,99830.73
2019-03-18T06:54:59.158Z,99842.72
2019-03-18T06:57:29.803Z,99856.30
2019-03-18T07:00:00.182Z,99859.26
2019-03-18T07:02:31.149Z,99862.42
2019-03-18T07:05:01.835Z,99867.64
2019-03-18T07:07:32.101Z,99870.70
2019-03-18T07:10:02.306Z,99872.89
2019-03-18T07:12:33.571Z,99874.76
2019-03-18T07:15:04.824Z,99872.28
2019-03-18T07:17:35.959Z,99884.03
2019-03-18T07:20:11.461Z,99891.75
2019-03-18T07:22:41.879Z,99892.55
2019-03-18T07:25:12.904Z,99893.34
2019-03-18T07:27:43.292Z,99900.09
2019-03-18T07:30:16.122Z,99899.05
2019-03-18T07:32:46.436Z,99898.84
2019-03-18T07:35:17.158Z,99910.67
2019-03-18T07:37:48.161Z,99917.94
2019-03-18T07:40:19.017Z,99909.63
2019-03-18T07:42:49.555Z,99925.84
2019-03-18T07:45:20.670Z,99937.36
2019-03-18T07:47:51.622Z,99908.47
2019-03-18T07:50:22.274Z,99909.77
2019-03-18T07:52:52.902Z,99908.18
2019-03-18T07:55:25.647Z,99898.19
2019-03-18T07:57:56.256Z,99903.20
2019-03-18T08:00:26.552Z,99908.14
2019-03-18T08:02:57.321Z,99909.25
2019-03-18T08:05:29.628Z,99921.33
2019-03-18T08:08:00.057Z,99917.16
2019-03-18T08:10:30.318Z,99915.67
2019-03-18T08:13:02.987Z,99911.59
2019-03-18T08:15:33.310Z,99922.13
2019-03-18T08:18:04.329Z,99932.04
2019-03-18T08:20:34.750Z,99924.33
2019-03-18T08:23:05.563Z,99937.88
2019-03-18T08:25:35.988Z,99927.85
2019-03-18T08:28:06.569Z,99936.26
2019-03-18T08:30:37.207Z,99928.95
2019-03-18T08:33:08.820Z,99914.61
2019-03-18T08:35:40.089Z,99922.97
2019-03-18T08:38:11.908Z,99924.33
2019-03-18T08:40:45.161Z,99944.64
2019-03-18T08:43:15.498Z,99925.13
2019-03-18T08:45:49.453Z,99926.48
2019-03-18T08:48:21.806Z,99908.17
2019-03-18T08:50:52.231Z,99925.75
2019-03-18T08:53:22.710Z,99918.56
2019-03-18T08:55:53.719Z,99921.91
2019-03-18T08:58:26.751Z,99915.08
2019-03-18T09:01:03.737Z,99915.03
2019-03-18T09:03:35.444Z,99927.34
2019-03-18T09:06:05.718Z,99928.94
2019-03-18T09:08:38.213Z,99941.00
2019-03-18T09:11:08.884Z,99939.37
2019-03-18T09:13:39.448Z,99951.67
2019-03-18T09:16:10.390Z,99951.82
2019-03-18T09:18:43.686Z,99957.65
2019-03-18T09:21:14.032Z,99953.52
2019-03-18T09:23:44.402Z,99948.17
2019-03-18T09:26:14.613Z,99953.98
2019-03-18T09:28:44.910Z,99946.49
2019-03-18T09:31:15.366Z,99956.09
2019-03-18T09:33:47.430Z,99959.16
2019-03-18T09:36:18.943Z,99966.27
2019-03-18T09:38:49.574Z,99973.95
2019-03-18T09:41:20.013Z,99968.60
2019-03-18T09:43:50.265Z,99983.13
2019-03-18T09:46:21.021Z,99981.77
2019-03-18T09:48:51.819Z,99977.82
2019-03-18T09:51:22.172Z,99971.11
2019-03-18T09:53:55.036Z,99975.77
2019-03-18T09:56:27.431Z,99984.96
2019-03-18T09:58:57.783Z,99997.41
2019-03-18T10:01:29.866Z,100001.08
2019-03-18T10:04:01.836Z,99999.23
2019-03-18T10:06:32.648Z,99999.94
2019-03-18T10:09:03.187Z,100004.38
2019-03-18T10:11:33.792Z,100005.59
2019-03-18T10:14:04.117Z,100010.91
2019-03-18T10:16:37.524Z,100014.28
2019-03-18T10:19:08.375Z,100005.25
2019-03-18T10:21:39.873Z,100016.70
2019-03-18T10:24:10.211Z,100000.02
2019-03-18T10:26:40.937Z,99996.37
2019-03-18T10:29:11.617Z,100002.89
2019-03-18T10:31:41.913Z,100002.52
2019-03-18T10:34:12.141Z,99994.08
2019-03-18T10:36:42.702Z,99997.11
2019-03-18T10:39:14.051Z,100004.26
2019-03-18T10:41:45.317Z,100004.94
2019-03-18T10:44:16.155Z,100010.99
2019-03-18T10:46:46.909Z,100009.13
2019-03-18T10:49:17.404Z,100012.97
2019-03-18T10:51:48.370Z,100006.78
2019-03-18T10:54:30.433Z,100015.50
2019-03-18T10:56:55.007Z,100012.31
2019-03-18T10:59:30.229Z,100018.05
2019-03-18T11:02:01.139Z,100022.71
2019-03-18T11:04:31.800Z,100026.49
2019-03-18T11:07:02.869Z,100028.52
2019-03-18T11:09:34.016Z,100032.27
2019-03-18T11:12:04.883Z,100035.98
2019-03-18T11:14:35.758Z,100034.66
2019-03-18T11:17:06.664Z,100046.34
2019-03-18T11:19:37.554Z,100048.66
2019-03-18T11:22:08.159Z,100050.28
2019-03-18T11:24:38.830Z,100037.45
2019-03-18T11:27:12.894Z,100042.25
2019-03-18T11:29:45.436Z,100048.37
2019-03-18T11:32:16.116Z,100043.25
2019-03-18T11:34:46.659Z,100054.27
2019-03-18T11:37:17.069Z,100047.91
2019-03-18T11:39:47.723Z,100048.13
2019-03-18T11:42:18.638Z,100041.47
2019-03-18T11:44:50.819Z,100036.45
2019-03-18T11:47:22.862Z,100020.05
2019-03-18T11:49:53.695Z,100026.27
2019-03-18T11:52:24.515Z,100017.81
2019-03-18T11:54:55.086Z,100018.19
2019-03-18T11:57:25.717Z,100017.41
2019-03-18T11:59:59.398Z,100010.78
2019-03-18T12:02:31.902Z,100012.30
2019-03-18T12:05:09.440Z,100003.48
2019-03-18T12:07:41.157Z,99996.62
2019-03-18T12:10:14.645Z,99988.31
2019-03-18T12:12:44.928Z,99991.40
2019-03-18T12:15:17.447Z,99994.14
2019-03-18T12:17:48.160Z,99997.21
2019-03-18T12:20:24.904Z,99999.84
2019-03-18T12:22:55.063Z,100014.38
2019-03-18T12:25:25.946Z,99997.98
2019-03-18T12:27:58.239Z,100007.88
2019-03-18T12:30:31.289Z,99997.55
2019-03-18T12:33:01.883Z,100002.31
2019-03-18T12:35:32.540Z,100002.61
2019-03-18T12:38:04.825Z,100010.64
2019-03-18T12:40:35.686Z,100003.14
2019-03-18T12:43:06.325Z,100009.25
2019-03-18T12:45:37.330Z,100018.44
2019-03-18T12:48:08.208Z,100013.19
2019-03-18T12:50:54.542Z,100011.20
2019-03-18T12:53:11.364Z,100016.45
2019-03-18T12:55:41.704Z,100012.24
2019-03-18T12:58:12.283Z,100012.09
2019-03-18T13:00:43.084Z,100018.38
2019-03-18T13:03:13.824Z,100022.41
2019-03-18T13:05:44.509Z,100023.33
2019-03-18T13:08:15.735Z,100029.16
2019-03-18T13:10:46.160Z,100025.02
2019-03-18T13:13:16.794Z,100026.72
2019-03-18T13:15:47.130Z,100034.50
2019-03-18T13:18:18.516Z,100037.48
2019-03-18T13:20:48.841Z,100041.13
2019-03-18T13:23:20.642Z,100046.77
2019-03-18T13:25:50.986Z,100043.84
2019-03-18T13:28:21.645Z,100042.33
2019-03-18T13:30:54.859Z,100047.27
2019-03-18T13:33:25.800Z,100047.18
2019-03-18T13:35:56.469Z,100056.66
2019-03-18T13:38:27.188Z,100048.79
2019-03-18T13:40:58.012Z,100049.45
2019-03-18T13:43:29.566Z,100044.20
2019-03-18T13:46:06.976Z,100028.56
2019-03-18T13:48:37.255Z,100038.21
2019-03-18T13:51:20.042Z,100048.39
2019-03-18T13:53:39.800Z,100042.44
2019-03-18T13:56:10.109Z,100041.39
2019-03-18T13:58:40.327Z,100034.97
2019-03-18T14:01:10.972Z,100047.28
2019-03-18T14:03:41.276Z,100046.93
2019-03-18T14:06:11.560Z,100045.30
2019-03-18T14:08:42.157Z,100048.31
2019-03-18T14:11:12.832Z,100045.16
2019-03-18T14:13:43.182Z,100051.03
2019-03-18T14:16:13.440Z,100048.69
2019-03-18T14:18:45.635Z,100047.28
2019-03-18T14:21:16.998Z,100043.98
2019-03-18T14:23:49.166Z,100041.13
2019-03-18T14:26:20.605Z,100051.98
2019-03-18T14:28:50.897Z,100052.31
2019-03-18T14:31:21.637Z,100053.19
2019-03-18T14:33:52.819Z,100052.00
2019-03-18T14:36:23.469Z,100056.28
2019-03-18T14:38:54.143Z,100055.26
2019-03-18T14:41:24.453Z,100055.48
2019-03-18T14:43:55.024Z,100065.81
2019-03-18T14:46:25.340Z,100074.19
2019-03-18T14:48:55.567Z,100073.31
2019-03-18T14:51:26.166Z,100071.86
2019-03-18T14:53:56.450Z,100070.77
2019-03-18T14:56:32.229Z,100077.70
2019-03-18T14:59:02.839Z,100065.43
2019-03-18T15:01:34.621Z,100066.63
2019-03-18T15:04:05.007Z,100078.55
2019-03-18T15:06:35.749Z,100072.69
2019-03-18T15:09:08.791Z,100082.69
2019-03-18T15:11:39.506Z,100086.98
2019-03-18T15:14:10.374Z,100079.34
2019-03-18T15:16:42.632Z,100095.33
2019-03-18T15:19:16.626Z,100088.00
2019-03-18T15:21:58.023Z,100091.85
2019-03-18T15:24:19.664Z,100087.02
2019-03-18T15:26:49.966Z,100086.62
2019-03-18T15:29:20.694Z,100092.53
2019-03-18T15:31:52.373Z,100105.90
2019-03-18T15:34:25.864Z,100106.00
2019-03-18T15:36:56.486Z,100103.13
2019-03-18T15:39:27.115Z,100118.75
2019-03-18T15:41:57.787Z,100114.95
2019-03-18T15:44:28.060Z,100117.66
2019-03-18T15:46:58.296Z,100119.72
2019-03-18T15:49:29.608Z,100119.80
2019-03-18T15:52:10.409Z,100124.34
2019-03-18T15:54:32.165Z,100126.27
2019-03-18T15:57:04.556Z,100121.99
2019-03-18T15:59:35.340Z,100135.52
2019-03-18T16:02:05.751Z,100145.82
2019-03-18T16:04:36.558Z,100143.53
2019-03-18T16:07:08.502Z,100151.95
2019-03-18T16:09:38.816Z,100156.16
2019-03-18T16:12:12.312Z,100154.19
2019-03-18T16:14:41.857Z,100159.55
2019-03-18T16:17:12.290Z,100166.83
2019-03-18T16:19:42.720Z,100158.52
2019-03-18T16:22:22.959Z,100167.31
2019-03-18T16:24:46.746Z,100176.32
2019-03-18T16:27:17.110Z,100167.83
2019-03-18T16:29:48.631Z,100184.61
2019-03-18T16:32:19.737Z,100184.74
2019-03-18T16:34:53.559Z,100197.88
2019-03-18T16:37:24.315Z,100196.09
2019-03-18T16:39:56.171Z,100202.47
2019-03-18T16:42:27.686Z,100211.07
2019-03-18T16:44:58.243Z,100211.74
2019-03-18T16:47:31.329Z,100211.92
2019-03-18T16:50:01.668Z,100210.56
2019-03-18T16:52:35.930Z,100221.09
2019-03-18T16:55:05.082Z,100224.11
2019-03-18T16:57:35.760Z,100227.06
2019-03-18T17:00:13.434Z,100230.78
2019-03-18T17:02:44.253Z,100235.88
2019-03-18T17:05:16.716Z,100236.83
2019-03-18T17:07:47.292Z,100237.95
2019-03-18T17:10:17.912Z,100241.20
2019-03-18T17:12:48.520Z,100229.34
2019-03-18T17:15:22.915Z,100229.03
2019-03-18T17:17:53.582Z,100242.17
2019-03-18T17:20:23.817Z,100245.41
2019-03-18T17:22:54.064Z,100248.45
2019-03-18T17:25:33.126Z,100249.05
2019-03-18T17:28:03.776Z,100256.69
2019-03-18T17:30:35.585Z,100251.13
2019-03-18T17:33:06.228Z,100258.59
2019-03-18T17:35:36.525Z,100263.39
2019-03-18T17:38:06.998Z,100268.66
2019-03-18T17:40:37.254Z,100267.46
2019-03-18T17:43:07.824Z,100267.09
2019-03-18T17:45:41.756Z,100268.96
2019-03-18T17:48:11.969Z,100270.77
2019-03-18T17:50:42.265Z,100270.44
2019-03-18T17:53:12.499Z,100273.58
2019-03-18T17:55:44.292Z,100273.66
2019-03-18T17:58:14.567Z,100275.38
2019-03-18T18:00:46.425Z,100276.32
2019-03-18T18:03:18.670Z,100278.52
2019-03-18T18:05:51.490Z,100278.98
2019-03-18T18:08:21.855Z,100287.30
2019-03-18T18:10:52.485Z,100286.92
2019-03-18T18:13:26.872Z,100290.02
2019-03-18T18:15:57.208Z,100280.97
2019-03-18T18:18:30.562Z,100292.23
2019-03-18T18:21:00.839Z,100294.84
2019-03-18T18:23:31.146Z,100298.83
2019-03-18T18:26:01.370Z,100314.83
2019-03-18T18:28:31.632Z,100307.91
2019-03-18T18:31:01.859Z,100316.53
2019-03-18T18:33:32.068Z,100308.75
2019-03-18T18:36:02.354Z,100304.84
2019-03-18T18:38:32.980Z,100304.34
2019-03-18T18:41:03.803Z,100306.05
2019-03-18T18:43:44.229Z,100312.88
2019-03-18T18:46:17.753Z,100301.23
2019-03-18T18:48:48.488Z,100309.48
2019-03-18T18:51:18.726Z,100312.07
2019-03-18T18:53:49.333Z,100317.27
2019-03-18T18:56:19.650Z,100316.39
2019-03-18T18:58:50.231Z,100314.28
2019-03-18T19:01:20.538Z,100317.31
2019-03-18T19:03:50.741Z,100316.11
2019-03-18T19:06:21.601Z,100314.84
2019-03-18T19:08:52.310Z,100313.56
2019-03-18T19:11:22.610Z,100317.02
2019-03-18T19:13:53.080Z,100326.98
2019-03-18T19:16:23.765Z,100330.06
2019-03-18T19:18:54.051Z,100326.17
2019-03-18T19:21:26.076Z,100331.36
2019-03-18T19:23:57.090Z,100332.72
2019-03-18T19:26:27.428Z,100332.30
2019-03-18T19:28:57.640Z,100331.48
2019-03-18T19:31:28.213Z,100334.54
2019-03-18T19:33:58.672Z,100333.71
2019-03-18T19:36:29.176Z,100338.95
2019-03-18T19:39:04.728Z,100332.53
2019-03-18T19:41:35.727Z,100331.30
2019-03-18T19:44:05.963Z,100331.32
2019-03-18T19:46:36.349Z,100335.66
2019-03-18T19:49:07.220Z,100342.19
2019-03-18T19:51:37.614Z,100344.83
2019-03-18T19:54:07.808Z,100343.95
2019-03-18T19:56:38.039Z,100345.27
2019-03-18T19:59:11.246Z,100343.12
2019-03-18T20:01:41.556Z,100345.30
2019-03-18T20:04:23.586Z,100343.14
2019-03-18T20:06:54.153Z,100350.52
2019-03-18T20:11:53.967Z,100341.53
2019-03-18T20:14:24.543Z,100346.78
2019-03-18T20:16:56.394Z,100349.88
2019-03-18T20:19:27.164Z,100356.39
2019-03-18T20:21:57.806Z,100365.09
2019-03-18T20:24:28.172Z,100365.54
2019-03-18T20:26:58.395Z,100361.27
2019-03-18T20:29:28.644Z,100368.61
2019-03-18T20:31:58.866Z,100367.77
2019-03-18T20:34:29.475Z,100365.22
2019-03-18T20:37:00.122Z,100369.95
2019-03-18T20:39:30.491Z,100377.74
2019-03-18T20:42:00.756Z,100367.03
2019-03-18T20:44:31.005Z,100372.23
2019-03-18T20:47:01.677Z,100373.11
2019-03-18T20:49:32.699Z,100374.83
2019-03-18T20:52:16.317Z,100383.44
2019-03-18T20:54:38.325Z,100379.13
2019-03-18T20:57:09.506Z,100378.72
2019-03-18T20:59:39.724Z,100381.33
2019-03-18T21:02:10.481Z,100384.36
2019-03-18T21:04:41.983Z,100388.66
2019-03-18T21:07:12.234Z,100385.26
2019-03-18T21:09:42.787Z,100390.02
2019-03-18T21:12:13.451Z,100393.91
2019-03-18T21:14:45.223Z,100395.20
2019-03-18T21:17:18.021Z,100388.77
2019-03-18T21:19:48.365Z,100393.53
2019-03-18T21:22:18.968Z,100387.11
2019-03-18T21:24:49.248Z,100391.87
2019-03-18T21:27:19.828Z,100396.59
2019-03-18T21:29:52.376Z,100402.21
2019-03-18T21:32:24.287Z,100409.13
2019-03-18T21:34:54.941Z,100403.52
2019-03-18T21:37:25.586Z,100409.56
2019-03-18T21:39:56.314Z,100407.86
2019-03-18T21:42:26.987Z,100410.01
2019-03-18T21:44:57.617Z,100412.17
2019-03-18T21:47:29.554Z,100399.25
2019-03-18T21:50:01.752Z,100403.56
2019-03-18T21:52:32.818Z,100413.05
2019-03-18T21:55:03.630Z,100404.45
2019-03-18T21:57:34.385Z,100402.30
2019-03-18T22:00:09.766Z,100416.10
2019-03-18T22:02:40.989Z,100413.13
2019-03-18T22:05:11.331Z,100407.09
2019-03-18T22:07:41.661Z,100417.02
2019-03-18T22:10:14.748Z,100423.91
2019-03-18T22:12:46.367Z,100427.36
2019-03-18T22:15:18.087Z,100425.64
2019-03-18T22:17:48.653Z,100425.64
2019-03-18T22:20:19.807Z,100423.06
2019-03-18T22:22:50.040Z,100429.52
2019-03-18T22:25:20.681Z,100426.94
2019-03-18T22:27:51.150Z,100432.53
2019-03-18T22:30:22.635Z,100423.06
2019-03-18T22:32:54.672Z,100426.94
2019-03-18T22:35:25.377Z,100426.51
2019-03-18T22:37:55.765Z,100428.23
2019-03-18T22:40:26.088Z,100426.94
2019-03-18T22:42:56.684Z,100433.83
2019-03-18T22:45:27.309Z,100428.27
2019-03-18T22:47:58.033Z,100441.19
2019-03-18T22:50:28.347Z,100416.63
2019-03-18T22:52:58.921Z,100442.47
2019-03-18T22:55:29.586Z,100445.91
2019-03-18T22:57:59.899Z,100442.03
2019-03-18T23:00:33.184Z,100440.73
2019-03-18T23:03:04.306Z,100439.87
2019-03-18T23:05:35.025Z,100442.02
2019-03-18T23:08:06.027Z,100445.02
2019-03-18T23:10:36.361Z,100442.00
2019-03-18T23:13:06.565Z,100439.86
2019-03-18T23:15:38.911Z,100442.00
2019-03-18T23:18:09.222Z,100441.14
2019-03-18T23:20:39.466Z,100441.16
2019-03-18T23:23:10.037Z,100448.88
2019-03-18T23:25:40.376Z,100452.77
2019-03-18T23:28:10.934Z,100454.05
2019-03-18T23:30:41.595Z,100454.47
2019-03-18T23:33:11.963Z,100451.88
2019-03-18T23:35:42.539Z,100451.41
2019-03-18T23:38:12.834Z,100454.41
2019-03-18T23:40:44.510Z,100451.38
2019-03-18T23:43:15.142Z,100447.05
2019-03-18T23:45:45.855Z,100455.66
2019-03-18T23:48:16.499Z,100457.81
2019-03-18T23:50:47.992Z,100461.25
2019-03-18T23:53:18.573Z,100456.94
2019-03-18T23:55:48.868Z,100463.81
2019-03-18T23:58:19.083Z,100458.20
